Union, NJ

6:34 AM EDT on August 31, 2015 (GMT -0400)
Kean University Science Building Rooftop | | Change Station
CLOSE
Current Station
Personal Weather Station
Location: Union, NJ
Elevation: 40 ft
Nearby Weather Stations

Elev 40 ft 40.68 °N, 74.23 °W | Updated 48 seconds ago

Mostly Cloudy
Mostly Cloudy
74.1 °F
Feels Like 75 °F
N
1.0
Wind Variable Wind from SW
Gusts 5.0 mph

Today
High -- | Low -- °F
--% Chance of Precip.
Yesterday
High -- | Low -- °F
Precip. -- in
6:22 AM 7:31 PM
Waning Gibbous, 96% visible
Pressure 30.02 in
Visibility 10.0 miles
Clouds Few 7500 ft
Mostly Cloudy 11000 ft
Mostly Cloudy 25000 ft
Heat Index 75 °F
Dew Point 66 °F
Humidity 76%
Rainfall Not available.
Snow Depth Not available.
UV 0 out of 12
Pollen 10.30 out of 12
Air Quality Not available.
Flu Activity Not available.
METAR KEWR 310951Z 25008KT 10SM FEW075 BKN110 BKN250 24/20 A3002 RMK AO2 SLP165 T02440200 $
Pressure 30.02 in
Visibility 10.0 miles
Clouds Few 7500 ft
Mostly Cloudy 11000 ft
Mostly Cloudy 25000 ft
Heat Index 75 °F
Dew Point 66 °F
Humidity 76%
Rainfall Not available.
Snow Depth Not available.
UV 0 out of 12
Pollen 10.30 out of 12
Air Quality Not available.
Flu Activity Not available.
METAR KEWR 310951Z 25008KT 10SM FEW075 BKN110 BKN250 24/20 A3002 RMK AO2 SLP165 T02440200 $

10-Day Weather Forecast

×

Almanac

Astronomy

Aug. 31, 2015 Rise Set
Actual Time
Civil Twilight
Nautical Twilight
Astronomical Twilight
Moon
Length of Visible Light
Length of Day
Tomorrow will be .
, % of the Moon is Illuminated

Today's Extremes

State Highs State Lows

Community

WunderPhotos

Upload Photos

1,851,229 photos uploaded!

WunderBlogs® & News

Nearby

Air Quality

  Air Quality AQ Index Pollutant
Not available.

Snow Depth

Station Depth Elevation

Earthquake Activity

City Distance Mag. Time & Date
Minimum magnitude displayed is 2.5.

Coastal Water Temperatures

Place Temperature

Stations

Nearby Weather Stations

Station Location Temp. Windchill Dew Point Humidity Wind Precip. Elev Updated Type